Terminal Aerodrome Forecast
Issued by NWS Duluth, MN

Home | Current Version | Previous Version | Text Only | Print | Product List | Glossary On
Versions: 1 2 3 4 5 6 7 8 9 10 11 12 13 14 15 16 17 18 19
038
FTUS43 KDLH 240716 AAA
TAFINL
TAF AMD
KINL 240716Z 2407/2506 VRB05KT P6SM VCSH SCT026 BKN250
      TEMPO 2407/2411 BKN015
     FM241100 22006KT P6SM OVC035
     FM241500 26007KT P6SM SCT035
     FM241800 26010G17KT P6SM SCT060
     FM250100 24005KT P6SM SKC=

USA.gov is the U.S. government's official web portal to all federal, state and local government web resources and services.